Terminal Aerodrome Forecast
Issued by NWS Grand Rapids, MI

Home | Current Version | Previous Version | Text Only | Print | Product List | Glossary On
Versions: 1 2 3 4 5 6 7 8 9 10 11 12 13 14 15 16 17 18 19 20 21 22 23 24
000
FTUS43 KGRR 031818 AAA
TAFGRR
TAF AMD
KGRR 031818Z 0318/0418 27005KT 3SM -RA BR BKN025
     FM031900 24007KT P6SM SCT030 BKN060
     FM040500 00000KT 2SM BR SCT015
     FM041000 00000KT 1SM BR BKN007
     FM041400 18005KT 3SM BR BKN200
     FM041500 21007KT P6SM BKN050=

USA.gov is the U.S. government's official web portal to all federal, state and local government web resources and services.